Time;durP1;ratioP1;P1;durP2;ratioP2;P2;SDS_P1;SDS_P2;PMS_P1;PMS_P2;Temp;Humidity;BMP_temperature;BMP_pressure;BME280_temperature;BME280_humidity;BME280_pressure;Samples;Min_cycle;Max_cycle;Signal;HPM_P1;HPM_P2
2022/01/30 00:01:43;;;;;;;0.65;0.65;;;5.20;99.90;;;;;;5052349;28;20476;-75
2022/01/30 00:04:09;;;;;;;0.20;0.20;;;5.20;99.90;;;;;;5051694;28;20104;-75
2022/01/30 00:06:34;;;;;;;0.35;0.30;;;5.20;99.90;;;;;;5033675;28;20060;-75
2022/01/30 00:09:00;;;;;;;1.10;0.80;;;5.10;99.90;;;;;;5033804;28;20032;-75
2022/01/30 00:11:32;;;;;;;0.63;0.50;;;5.20;99.90;;;;;;5051564;28;20021;-75
2022/01/30 00:13:59;;;;;;;1.45;0.43;;;5.10;99.90;;;;;;5033832;28;20388;-75
2022/01/30 00:16:30;;;;;;;0.40;0.40;;;5.10;99.90;;;;;;5017172;28;20116;-75
2022/01/30 00:19:12;;;;;;;1.27;1.08;;;5.10;99.90;;;;;;5051704;28;20017;-75
2022/01/30 00:21:43;;;;;;;2.25;1.40;;;5.10;99.90;;;;;;5017250;28;20404;-74
2022/01/30 00:24:25;;;;;;;2.80;0.57;;;5.00;99.90;;;;;;5033762;28;20023;-75
2022/01/30 00:26:51;;;;;;;2.97;0.90;;;4.90;99.90;;;;;;5017056;28;20033;-74
2022/01/30 00:29:16;;;;;;;0.80;0.80;;;5.00;99.90;;;;;;5033712;28;20481;-75
2022/01/30 00:31:43;;;;;;;0.93;0.70;;;4.90;99.90;;;;;;5033393;28;20025;-75
2022/01/30 00:34:08;;;;;;;0.55;0.50;;;4.90;99.90;;;;;;5017238;28;20485;-75
2022/01/30 00:36:34;;;;;;;4.30;0.93;;;4.90;99.90;;;;;;5051302;28;20028;-75
2022/01/30 00:39:00;;;;;;;0.30;0.30;;;4.90;99.90;;;;;;5033491;28;20025;-75
2022/01/30 00:41:26;;;;;;;0.40;0.40;;;4.90;99.90;;;;;;5033669;28;20021;-75
2022/01/30 00:43:52;;;;;;;0.75;0.68;;;5.00;99.90;;;;;;5051347;28;20025;-75
2022/01/30 00:46:18;;;;;;;1.23;0.75;;;4.90;99.90;;;;;;5051444;28;20484;-75
2022/01/30 00:48:44;;;;;;;0.10;0.10;;;5.00;99.90;;;;;;5051400;28;20029;-75
2022/01/30 00:51:10;;;;;;;0.22;0.22;;;5.00;99.90;;;;;;5033556;28;20033;-75
2022/01/30 00:53:36;;;;;;;0.60;0.60;;;4.90;99.90;;;;;;5036899;28;20017;-75
2022/01/30 00:56:02;;;;;;;0.47;0.47;;;4.90;99.90;;;;;;5020504;28;20025;-75
2022/01/30 00:58:28;;;;;;;1.13;1.02;;;4.90;99.90;;;;;;5037066;28;20033;-75
2022/01/30 01:00:54;;;;;;;0.57;0.57;;;4.90;99.90;;;;;;5054919;28;20021;-74
2022/01/30 01:03:19;;;;;;;1.95;0.63;;;4.90;99.90;;;;;;5037010;28;20399;-75
2022/01/30 01:05:45;;;;;;;0.40;0.40;;;4.90;99.90;;;;;;5020412;28;20072;-75
2022/01/30 01:08:17;;;;;;;1.77;1.30;;;4.90;99.90;;;;;;5054617;28;20082;-74
2022/01/30 01:10:52;;;;;;;1.27;1.08;;;4.80;99.90;;;;;;5020467;28;20052;-75
2022/01/30 01:23:56;;;;;;;0.50;0.50;;;4.80;99.90;;;;;;5036609;28;20404;-75
2022/01/30 01:26:24;;;;;;;0.95;0.77;;;4.80;99.90;;;;;;5054389;28;20385;-75
2022/01/30 01:28:51;;;;;;;0.80;0.80;;;4.80;99.90;;;;;;5020231;28;20460;-75
2022/01/30 01:31:17;;;;;;;0.60;0.60;;;4.80;99.90;;;;;;5054284;28;20103;-75
2022/01/30 01:36:10;;;;;;;0.28;0.22;;;4.90;99.90;;;;;;5054191;28;20491;-75
2022/01/30 01:38:35;;;;;;;0.60;0.60;;;4.90;99.90;;;;;;5036443;28;20021;-75
2022/01/30 01:41:01;;;;;;;1.55;1.35;;;4.90;99.90;;;;;;5054224;28;20032;-75
2022/01/30 01:43:27;;;;;;;1.52;0.90;;;4.90;99.90;;;;;;5054147;28;20025;-75
2022/01/30 01:45:56;;;;;;;0.20;0.20;;;4.90;99.90;;;;;;5036195;28;20388;-74
2022/01/30 01:48:22;;;;;;;0.60;0.60;;;4.80;99.90;;;;;;5054137;28;20104;-75
2022/01/30 01:51:07;;;;;;;1.50;1.17;;;4.80;99.90;;;;;;5035990;28;20113;-75
2022/01/30 01:53:33;;;;;;;1.73;1.20;;;4.90;99.90;;;;;;5019834;28;20499;-75
2022/01/30 01:55:59;;;;;;;0.30;0.30;;;4.90;99.90;;;;;;5036009;28;20032;-75
2022/01/30 01:58:28;;;;;;;3.22;1.17;;;4.90;99.90;;;;;;5053821;28;20029;-74
2022/01/30 02:00:54;;;;;;;1.75;1.02;;;4.80;99.90;;;;;;5035950;28;20029;-75
2022/01/30 02:03:22;;;;;;;0.63;0.63;;;4.90;99.90;;;;;;5035716;28;20039;-75
2022/01/30 02:05:53;;;;;;;0.63;0.47;;;4.90;99.90;;;;;;5035796;28;20028;-75
2022/01/30 02:14:11;;;;;;;1.25;0.70;;;4.90;99.90;;;;;;5053562;28;20487;-75
2022/01/30 02:24:48;;;;;;;0.52;0.50;;;4.90;99.90;;;;;;5035738;28;20090;-75
2022/01/30 02:27:18;;;;;;;0.20;0.20;;;4.90;99.90;;;;;;5035516;28;20025;-75
2022/01/30 02:29:44;;;;;;;0.40;0.40;;;4.90;99.90;;;;;;5053682;28;20100;-74
2022/01/30 02:32:10;;;;;;;0.73;0.63;;;4.90;99.90;;;;;;5035284;28;20056;-75
2022/01/30 02:34:36;;;;;;;0.20;0.20;;;4.90;99.90;;;;;;5053412;28;20021;-75
2022/01/30 02:37:03;;;;;;;0.20;0.20;;;4.90;99.90;;;;;;5053051;28;20385;-75
2022/01/30 02:39:29;;;;;;;0.55;0.55;;;4.90;99.90;;;;;;5053027;28;20055;-75
2022/01/30 02:41:55;;;;;;;0.70;0.52;;;4.90;99.90;;;;;;5035190;28;20442;-75
2022/01/30 02:46:52;;;;;;;0.20;0.20;;;4.90;99.90;;;;;;5035015;28;20082;-75
2022/01/30 02:51:51;;;;;;;0.40;0.40;;;5.00;99.90;;;;;;5052958;28;20025;-75
2022/01/30 02:54:18;;;;;;;0.45;0.32;;;4.90;99.90;;;;;;5052881;28;20029;-75
2022/01/30 02:56:44;;;;;;;0.60;0.60;;;4.90;99.90;;;;;;5034733;28;20017;-74
2022/01/30 02:59:11;;;;;;;0.30;0.30;;;4.90;99.90;;;;;;5052936;28;20104;-75
2022/01/30 03:01:37;;;;;;;0.20;0.20;;;4.80;99.90;;;;;;5034848;28;20025;-75
2022/01/30 03:04:04;;;;;;;0.30;0.30;;;4.80;99.90;;;;;;5034846;28;20029;-75
2022/01/30 03:06:30;;;;;;;0.35;0.35;;;4.90;99.90;;;;;;5052464;28;20029;-75
2022/01/30 03:08:57;;;;;;;0.77;0.77;;;4.80;99.90;;;;;;5052487;28;20028;-75
2022/01/30 03:11:23;;;;;;;0.50;0.50;;;4.80;99.90;;;;;;5034474;28;20040;-75
2022/01/30 03:13:49;;;;;;;0.40;0.40;;;4.80;99.90;;;;;;5034446;28;20025;-75
2022/01/30 03:16:15;;;;;;;0.40;0.40;;;4.80;99.90;;;;;;5051947;28;20064;-75
2022/01/30 03:18:43;;;;;;;0.60;0.50;;;4.80;99.90;;;;;;5034601;28;20441;-75
2022/01/30 03:21:09;;;;;;;0.20;0.20;;;4.90;99.90;;;;;;5052389;28;20426;-75
2022/01/30 03:23:38;;;;;;;0.38;0.38;;;4.90;99.90;;;;;;5052263;28;20029;-75
2022/01/30 03:26:09;;;;;;;0.30;0.30;;;4.90;99.90;;;;;;5017804;28;20116;-75
2022/01/30 03:28:35;;;;;;;0.45;0.45;;;5.00;99.90;;;;;;5034481;28;20032;-75
2022/01/30 03:31:05;;;;;;;0.20;0.20;;;5.00;99.90;;;;;;5052034;28;20044;-75
2022/01/30 03:33:32;;;;;;;0.20;0.20;;;5.00;99.90;;;;;;5034186;28;20025;-75
2022/01/30 03:35:58;;;;;;;0.20;0.20;;;5.00;99.90;;;;;;5017578;28;20170;-74
2022/01/30 03:38:24;;;;;;;0.93;0.40;;;5.10;99.90;;;;;;5017765;28;20021;-75
2022/01/30 03:40:50;;;;;;;0.20;0.20;;;5.00;99.90;;;;;;5052115;28;20025;-74
2022/01/30 03:43:16;;;;;;;1.15;0.73;;;5.00;99.90;;;;;;5051871;28;20035;-75
2022/01/30 03:45:42;;;;;;;0.25;0.25;;;5.00;99.90;;;;;;5051832;28;20127;-75
2022/01/30 03:48:08;;;;;;;0.20;0.20;;;5.00;99.90;;;;;;5034209;28;20102;-75
2022/01/30 03:50:34;;;;;;;0.63;0.63;;;5.00;99.90;;;;;;5017424;28;20025;-75
2022/01/30 03:53:00;;;;;;;0.47;0.47;;;5.10;99.90;;;;;;5033990;28;20116;-75
2022/01/30 03:55:26;;;;;;;0.20;0.20;;;5.00;99.90;;;;;;5033988;28;20100;-75
2022/01/30 03:57:52;;;;;;;0.20;0.20;;;5.10;99.90;;;;;;5051838;28;20568;-75
2022/01/30 04:00:18;;;;;;;0.20;0.20;;;5.00;99.90;;;;;;5051880;28;20029;-75
2022/01/30 04:02:45;;;;;;;1.27;0.75;;;5.00;99.90;;;;;;5017514;28;20125;-75
2022/01/30 04:05:11;;;;;;;0.40;0.40;;;5.00;99.90;;;;;;5034048;28;20033;-75
2022/01/30 04:07:37;;;;;;;0.50;0.50;;;5.00;99.90;;;;;;5051651;28;20033;-75
2022/01/30 04:10:05;;;;;;;0.17;0.17;;;5.00;99.90;;;;;;5033910;28;20032;-75
2022/01/30 04:12:31;;;;;;;0.20;0.20;;;5.10;99.90;;;;;;5033770;28;20060;-75
2022/01/30 04:14:58;;;;;;;0.20;0.20;;;5.10;99.90;;;;;;5051740;28;20025;-75
2022/01/30 04:17:24;;;;;;;0.28;0.28;;;5.10;99.90;;;;;;5033671;28;20027;-75
2022/01/30 04:19:49;;;;;;;0.20;0.20;;;5.10;99.90;;;;;;5051657;28;20025;-75
2022/01/30 04:22:15;;;;;;;0.47;0.47;;;5.10;99.90;;;;;;5051546;28;20028;-75
2022/01/30 04:24:42;;;;;;;0.20;0.20;;;5.10;99.90;;;;;;5051690;28;20018;-75
2022/01/30 04:27:07;;;;;;;0.40;0.40;;;5.20;99.90;;;;;;5052565;28;20489;-75
2022/01/30 04:29:33;;;;;;;0.20;0.20;;;5.20;99.90;;;;;;5055495;28;20102;-75
2022/01/30 04:32:00;;;;;;;0.35;0.35;;;5.20;99.90;;;;;;5037482;28;20167;-74
2022/01/30 04:34:27;;;;;;;0.20;0.20;;;5.10;99.90;;;;;;5021365;28;20017;-75
2022/01/30 04:37:01;;;;;;;0.32;0.32;;;5.10;99.90;;;;;;5037480;28;20028;-75
2022/01/30 04:39:50;;;;;;;0.20;0.20;;;5.10;99.90;;;;;;5055457;28;20414;-75
2022/01/30 04:56:46;;;;;;;0.30;0.30;;;5.30;99.90;;;;;;5037202;28;20452;-75
2022/01/30 05:01:21;;;;;;;0.10;0.10;;;5.20;99.90;;;;;;5055090;28;20143;-75
2022/01/30 05:06:16;;;;;;;0.40;0.40;;;5.20;99.90;;;;;;5036851;28;20542;-75
2022/01/30 05:08:42;;;;;;;0.40;0.35;;;5.20;99.90;;;;;;5036946;28;20420;-75
2022/01/30 05:11:09;;;;;;;0.30;0.30;;;5.20;99.90;;;;;;5036919;28;20123;-75
2022/01/30 05:13:41;;;;;;;0.20;0.20;;;5.20;99.90;;;;;;5036862;28;20061;-75
2022/01/30 05:16:07;;;;;;;0.20;0.20;;;5.20;99.90;;;;;;5020317;28;20112;-75
2022/01/30 05:18:33;;;;;;;0.20;0.20;;;5.20;99.90;;;;;;5054529;28;20090;-75
2022/01/30 05:20:59;;;;;;;0.30;0.30;;;5.30;99.90;;;;;;5054680;28;20025;-75
2022/01/30 05:23:25;;;;;;;0.20;0.20;;;5.20;99.90;;;;;;5036577;28;20082;-75
2022/01/30 05:25:52;;;;;;;0.55;0.55;;;5.10;99.90;;;;;;5054459;28;20059;-75
2022/01/30 05:28:22;;;;;;;0.35;0.35;;;5.20;99.90;;;;;;5036644;28;20055;-75
2022/01/30 05:30:48;;;;;;;0.65;0.65;;;5.20;99.90;;;;;;5054380;28;20033;-75
2022/01/30 05:33:14;;;;;;;0.32;0.32;;;5.10;99.90;;;;;;5054759;28;20047;-75
2022/01/30 05:35:40;;;;;;;0.20;0.20;;;5.10;99.90;;;;;;5054390;28;20108;-75
2022/01/30 05:38:06;;;;;;;0.20;0.20;;;5.10;99.90;;;;;;5035864;28;20025;-75
2022/01/30 05:40:37;;;;;;;0.80;0.43;;;5.10;99.90;;;;;;5036525;28;20025;-75
2022/01/30 05:43:04;;;;;;;0.80;0.43;;;5.20;99.90;;;;;;5020044;28;20558;-75
2022/01/30 05:45:35;;;;;;;0.28;0.28;;;5.20;99.90;;;;;;5036211;28;20029;-75
2022/01/30 05:48:10;;;;;;;0.68;0.68;;;5.10;99.90;;;;;;5054002;28;20085;-75
2022/01/30 05:50:37;;;;;;;0.20;0.20;;;5.10;99.90;;;;;;5054121;28;20575;-75
2022/01/30 05:53:03;;;;;;;0.63;0.63;;;5.10;99.90;;;;;;5019530;28;20091;-75
2022/01/30 05:55:31;;;;;;;0.20;0.20;;;5.10;99.90;;;;;;5019568;28;20021;-75
2022/01/30 05:57:58;;;;;;;0.20;0.20;;;5.10;99.90;;;;;;5019836;28;20032;-75
2022/01/30 06:00:24;;;;;;;0.45;0.45;;;5.10;99.90;;;;;;5035972;28;20083;-75
2022/01/30 06:02:50;;;;;;;0.45;0.30;;;5.10;99.90;;;;;;5053895;28;20029;-75
2022/01/30 06:05:18;;;;;;;0.30;0.30;;;5.10;99.90;;;;;;5035885;28;20440;-75
2022/01/30 06:07:50;;;;;;;0.20;0.20;;;5.10;99.90;;;;;;5035708;28;20029;-75
2022/01/30 06:10:17;;;;;;;0.38;0.35;;;5.10;99.90;;;;;;5053429;28;20021;-75
2022/01/30 06:12:43;;;;;;;0.57;0.57;;;5.10;99.90;;;;;;5019090;28;20055;-74
2022/01/30 06:15:09;;;;;;;1.00;0.90;;;5.00;99.90;;;;;;5053483;28;20025;-75
2022/01/30 06:17:35;;;;;;;1.02;0.40;;;5.00;99.90;;;;;;5053362;28;20063;-74
2022/01/30 06:20:00;;;;;;;0.20;0.20;;;5.00;99.90;;;;;;5053510;28;20481;-75
2022/01/30 06:22:26;;;;;;;0.20;0.20;;;5.00;99.90;;;;;;5053397;28;20017;-75
2022/01/30 06:24:52;;;;;;;0.55;0.35;;;5.00;99.90;;;;;;5035540;28;20025;-75
2022/01/30 06:27:17;;;;;;;0.30;0.30;;;5.00;99.90;;;;;;5035368;28;20411;-75
2022/01/30 06:29:43;;;;;;;0.22;0.22;;;5.00;99.90;;;;;;5035462;28;20021;-75
2022/01/30 06:32:09;;;;;;;0.20;0.20;;;4.90;99.90;;;;;;5053100;28;20029;-75
2022/01/30 06:34:35;;;;;;;0.47;0.47;;;4.90;99.90;;;;;;5035421;28;20581;-75
2022/01/30 06:37:00;;;;;;;0.30;0.30;;;4.80;99.90;;;;;;5035216;28;20143;-75
2022/01/30 06:39:26;;;;;;;0.60;0.60;;;4.80;99.90;;;;;;5053086;28;20053;-75
2022/01/30 06:41:53;;;;;;;0.52;0.52;;;4.80;99.90;;;;;;5052870;28;20044;-75
2022/01/30 06:44:18;;;;;;;1.65;0.60;;;4.80;99.90;;;;;;5053258;28;20102;-75
2022/01/30 06:46:44;;;;;;;0.38;0.38;;;4.80;99.90;;;;;;5034847;28;20052;-75
2022/01/30 06:49:10;;;;;;;0.22;0.22;;;4.70;99.90;;;;;;5034407;28;20033;-75
2022/01/30 06:51:36;;;;;;;0.20;0.20;;;4.80;99.90;;;;;;5018103;28;20048;-75
2022/01/30 06:54:01;;;;;;;0.40;0.40;;;4.90;99.90;;;;;;5034919;28;20385;-75
2022/01/30 06:56:27;;;;;;;2.03;0.47;;;4.90;99.90;;;;;;5035054;28;20025;-75
2022/01/30 06:58:56;;;;;;;0.30;0.30;;;4.90;99.90;;;;;;5052691;28;20096;-75
2022/01/30 07:01:23;;;;;;;0.20;0.20;;;4.90;99.90;;;;;;5018265;28;20025;-75
2022/01/30 07:03:49;;;;;;;1.27;0.52;;;4.90;99.90;;;;;;5018290;28;20029;-75
2022/01/30 07:06:15;;;;;;;0.20;0.20;;;4.90;99.90;;;;;;5052518;28;20036;-74
2022/01/30 07:08:40;;;;;;;0.55;0.52;;;4.90;99.90;;;;;;5034543;28;20061;-75
2022/01/30 07:11:06;;;;;;;0.20;0.20;;;4.90;99.90;;;;;;5052390;28;20071;-75
2022/01/30 07:13:32;;;;;;;0.32;0.32;;;4.90;99.90;;;;;;5052424;28;20025;-75
2022/01/30 07:15:58;;;;;;;0.47;0.47;;;5.00;99.90;;;;;;5034510;28;20159;-75
2022/01/30 07:18:23;;;;;;;0.30;0.30;;;4.90;99.90;;;;;;5018306;28;20021;-75
2022/01/30 07:20:49;;;;;;;0.57;0.52;;;4.90;99.90;;;;;;5052276;28;20025;-75
2022/01/30 07:23:15;;;;;;;0.60;0.60;;;4.90;99.90;;;;;;5034649;28;20024;-75
2022/01/30 07:25:41;;;;;;;0.30;0.30;;;4.90;99.90;;;;;;5052072;28;20033;-75
2022/01/30 07:28:07;;;;;;;0.63;0.63;;;4.90;99.90;;;;;;5017906;28;20027;-75
2022/01/30 07:30:32;;;;;;;0.50;0.50;;;4.90;99.90;;;;;;5034373;28;20029;-75
2022/01/30 07:32:58;;;;;;;0.40;0.40;;;4.80;99.90;;;;;;5034298;28;20025;-75
2022/01/30 07:35:24;;;;;;;0.22;0.22;;;4.80;99.90;;;;;;5052220;28;20021;-75
2022/01/30 07:37:50;;;;;;;0.17;0.17;;;4.80;99.90;;;;;;5034166;28;20029;-74
2022/01/30 07:40:16;;;;;;;0.20;0.20;;;4.80;99.90;;;;;;5034387;28;20036;-75
2022/01/30 07:42:42;;;;;;;0.20;0.20;;;4.80;99.90;;;;;;5034025;28;20059;-75
2022/01/30 07:45:08;;;;;;;0.40;0.40;;;4.80;99.90;;;;;;5052039;28;20029;-75
2022/01/30 07:47:34;;;;;;;0.40;0.40;;;4.80;99.90;;;;;;5033955;28;20021;-75
2022/01/30 07:50:00;;;;;;;0.68;0.68;;;4.70;99.90;;;;;;5051757;28;20033;-75
2022/01/30 07:52:25;;;;;;;0.30;0.30;;;4.70;99.90;;;;;;5051933;28;20021;-75
2022/01/30 07:54:51;;;;;;;0.30;0.30;;;4.70;99.90;;;;;;5034103;28;20028;-74
2022/01/30 07:57:17;;;;;;;0.30;0.30;;;4.70;99.90;;;;;;5050908;28;20021;-75
2022/01/30 07:59:43;;;;;;;0.35;0.35;;;4.70;99.90;;;;;;5035268;28;20386;-75
2022/01/30 08:02:09;;;;;;;0.15;0.15;;;4.80;99.90;;;;;;5044745;28;20060;-75
2022/01/30 08:04:35;;;;;;;1.17;0.80;;;4.80;99.90;;;;;;5071669;28;20123;-75
2022/01/30 08:07:01;;;;;;;0.35;0.35;;;4.80;99.90;;;;;;5044981;28;20039;-75
2022/01/30 08:09:28;;;;;;;0.40;0.40;;;4.80;99.90;;;;;;5053785;28;20507;-75
2022/01/30 08:11:55;;;;;;;0.20;0.20;;;4.80;99.90;;;;;;5071662;28;20021;-74
2022/01/30 08:14:21;;;;;;;5.00;0.63;;;4.90;99.90;;;;;;5063243;28;20055;-75
2022/01/30 08:16:47;;;;;;;0.70;0.70;;;4.80;99.90;;;;;;5071242;28;20024;-75
2022/01/30 08:19:13;;;;;;;0.68;0.68;;;4.90;99.90;;;;;;5071728;28;20099;-75
2022/01/30 08:21:38;;;;;;;0.30;0.30;;;4.90;99.90;;;;;;5037033;28;20021;-74
2022/01/30 08:24:05;;;;;;;0.20;0.20;;;4.90;99.90;;;;;;5071756;28;20028;-75
2022/01/30 08:26:31;;;;;;;0.45;0.45;;;4.90;99.90;;;;;;5071353;28;20492;-75
2022/01/30 08:28:56;;;;;;;0.30;0.30;;;5.00;99.90;;;;;;5036873;28;20058;-74
2022/01/30 08:31:22;;;;;;;0.68;0.68;;;5.00;99.90;;;;;;5063337;28;20473;-75
2022/01/30 08:33:48;;;;;;;0.40;0.40;;;4.90;99.90;;;;;;5051350;28;20021;-74
2022/01/30 08:36:14;;;;;;;0.10;0.10;;;4.80;99.90;;;;;;5017165;28;20426;-75
2022/01/30 08:38:39;;;;;;;0.60;0.60;;;4.80;99.90;;;;;;5051582;28;20025;-74
2022/01/30 08:41:05;;;;;;;1.27;0.65;;;4.80;99.90;;;;;;5033746;28;20021;-75
2022/01/30 08:43:31;;;;;;;0.20;0.20;;;4.70;99.90;;;;;;5033259;28;20025;-74
2022/01/30 08:45:59;;;;;;;1.67;1.13;;;4.80;99.90;;;;;;5033182;28;20025;-74
2022/01/30 08:48:25;;;;;;;0.20;0.20;;;4.90;99.90;;;;;;5033493;28;20079;-74
2022/01/30 08:50:51;;;;;;;0.20;0.20;;;4.90;99.90;;;;;;5051288;28;20035;-74
2022/01/30 08:53:17;;;;;;;0.32;0.32;;;4.90;99.90;;;;;;5038444;28;20096;-74
2022/01/30 08:55:43;;;;;;;0.13;0.13;;;4.90;99.90;;;;;;5016708;28;20077;-73
2022/01/30 08:58:09;;;;;;;0.10;0.10;;;4.80;99.90;;;;;;5033061;28;20071;-74
2022/01/30 09:00:36;;;;;;;1.92;0.70;;;4.90;99.90;;;;;;5021828;28;20032;-74
2022/01/30 09:03:04;;;;;;;0.20;0.20;;;4.80;99.90;;;;;;5045805;28;20111;-74
2022/01/30 09:05:30;;;;;;;0.38;0.38;;;4.90;99.90;;;;;;5059043;28;20036;-74
2022/01/30 09:07:57;;;;;;;0.15;0.15;;;4.90;99.90;;;;;;5053291;28;20024;-74
2022/01/30 09:10:23;;;;;;;0.35;0.35;;;4.80;99.90;;;;;;5069963;28;20021;-74
2022/01/30 09:12:49;;;;;;;0.57;0.40;;;4.80;99.90;;;;;;5051357;28;20519;-74
2022/01/30 09:15:16;;;;;;;0.88;0.68;;;4.70;99.90;;;;;;5055204;28;20488;-74
2022/01/30 09:17:43;;;;;;;1.00;0.63;;;5.00;99.90;;;;;;5055154;28;20074;-74
2022/01/30 09:20:11;;;;;;;0.82;0.35;;;5.00;99.90;;;;;;5039955;28;20032;-74
2022/01/30 09:22:37;;;;;;;0.28;0.28;;;5.00;99.90;;;;;;5067469;28;20107;-74
2022/01/30 09:25:05;;;;;;;3.03;0.38;;;5.00;99.90;;;;;;5026763;28;20025;-74
2022/01/30 09:27:31;;;;;;;0.43;0.43;;;5.10;99.90;;;;;;5061486;28;20229;-74
2022/01/30 09:29:57;;;;;;;0.30;0.30;;;5.10;99.90;;;;;;5054291;28;20032;-74
2022/01/30 09:32:24;;;;;;;0.77;0.75;;;5.10;99.90;;;;;;5074440;28;20280;-74
2022/01/30 09:34:50;;;;;;;2.53;0.80;;;5.10;99.90;;;;;;5059004;28;20025;-74
2022/01/30 09:37:17;;;;;;;0.32;0.32;;;5.00;99.90;;;;;;5054177;28;20100;-74
2022/01/30 09:39:44;;;;;;;0.30;0.30;;;5.10;99.90;;;;;;5040716;28;20024;-74
2022/01/30 09:42:10;;;;;;;0.20;0.20;;;5.20;99.90;;;;;;5019531;28;20115;-74
2022/01/30 09:44:40;;;;;;;0.50;0.50;;;5.30;99.90;;;;;;5054140;28;20151;-74
2022/01/30 09:47:14;;;;;;;1.02;1.02;;;5.40;99.90;;;;;;5053861;28;20098;-74
2022/01/30 09:49:49;;;;;;;1.67;0.70;;;5.40;99.90;;;;;;5053900;28;20033;-74
2022/01/30 09:52:15;;;;;;;19.67;1.45;;;5.30;99.90;;;;;;5036091;28;20111;-74
2022/01/30 09:54:42;;;;;;;0.60;0.60;;;5.40;99.90;;;;;;5036274;28;20028;-74
2022/01/30 09:57:07;;;;;;;0.75;0.35;;;5.40;99.90;;;;;;5066709;28;20023;-74
2022/01/30 09:59:33;;;;;;;0.20;0.20;;;5.40;99.90;;;;;;5047798;28;20021;-74
2022/01/30 10:02:03;;;;;;;1.05;0.60;;;5.60;99.90;;;;;;5036172;28;20451;-74
2022/01/30 10:04:30;;;;;;;0.50;0.50;;;5.60;99.90;;;;;;5053847;28;20108;-74
2022/01/30 10:07:01;;;;;;;0.47;0.45;;;5.60;99.90;;;;;;5053562;28;20025;-74
2022/01/30 10:09:31;;;;;;;0.30;0.30;;;5.50;99.90;;;;;;5053893;28;20072;-74
2022/01/30 10:12:19;;;;;;;1.13;0.82;;;5.80;99.90;;;;;;5053401;28;20082;-74
2022/01/30 10:15:00;;;;;;;1.65;0.68;;;5.70;99.90;;;;;;5035563;28;20130;-74
2022/01/30 10:17:29;;;;;;;0.30;0.30;;;5.80;99.90;;;;;;5053219;28;20030;-74
2022/01/30 10:20:07;;;;;;;2.10;1.85;;;5.80;99.90;;;;;;5053439;28;20419;-74
2022/01/30 10:22:37;;;;;;;2.55;0.98;;;5.80;99.90;;;;;;5035285;28;20024;-74
2022/01/30 10:25:04;;;;;;;1.88;1.02;;;5.70;99.90;;;;;;5035587;28;20044;-74
2022/01/30 10:27:32;;;;;;;0.52;0.52;;;5.70;99.90;;;;;;5053178;28;20076;-75
2022/01/30 10:30:05;;;;;;;1.60;1.50;;;5.50;99.90;;;;;;5037729;28;20387;-74
2022/01/30 10:32:32;;;;;;;0.73;0.63;;;5.50;99.90;;;;;;5072939;28;20021;-74
2022/01/30 10:35:02;;;;;;;2.20;0.77;;;5.50;99.90;;;;;;5036742;28;20515;-74
2022/01/30 10:37:28;;;;;;;0.38;0.38;;;5.50;99.90;;;;;;5035785;28;20067;-74
2022/01/30 10:40:10;;;;;;;1.33;0.70;;;5.50;99.90;;;;;;5053628;28;20490;-75
2022/01/30 10:42:48;;;;;;;5.15;0.82;;;5.70;99.90;;;;;;5053313;28;20032;-75
2022/01/30 10:45:34;;;;;;;1.30;0.55;;;5.80;99.90;;;;;;5052696;28;20028;-75
2022/01/30 10:48:24;;;;;;;0.50;0.50;;;5.80;99.90;;;;;;5018465;28;20417;-74
2022/01/30 10:50:50;;;;;;;0.73;0.50;;;5.70;99.90;;;;;;5053009;28;20098;-75
2022/01/30 10:53:17;;;;;;;1.85;1.45;;;5.70;99.90;;;;;;5035112;28;20017;-75
2022/01/30 10:55:44;;;;;;;2.95;1.83;;;5.80;99.90;;;;;;5052296;28;20031;-74
2022/01/30 10:58:16;;;;;;;0.20;0.20;;;5.80;99.90;;;;;;5052293;28;20079;-75
2022/01/30 11:00:51;;;;;;;1.70;1.05;;;5.70;99.90;;;;;;5035082;28;20024;-75
2022/01/30 11:03:37;;;;;;;1.60;0.77;;;5.80;99.90;;;;;;5034626;28;20095;-75
2022/01/30 11:06:07;;;;;;;0.43;0.43;;;5.70;99.90;;;;;;5034576;28;20033;-74
2022/01/30 11:08:34;;;;;;;0.85;0.65;;;5.70;99.90;;;;;;5052713;28;20476;-75
2022/01/30 11:11:03;;;;;;;0.40;0.40;;;5.70;99.90;;;;;;5018026;28;20039;-75
2022/01/30 11:13:32;;;;;;;2.38;1.05;;;5.70;99.90;;;;;;5018057;28;20028;-74
2022/01/30 11:16:56;;;;;;;2.97;1.77;;;5.70;99.90;;;;;;5034114;28;20056;-75
2022/01/30 11:18:51;;;;;;;0.50;0.50;;;5.60;99.90;;;;;;5052031;28;20063;-75
2022/01/30 11:21:20;;;;;;;0.70;0.70;;;5.60;99.90;;;;;;5034464;28;20060;-75
2022/01/30 11:23:49;;;;;;;3.28;0.70;;;5.60;99.90;;;;;;5034335;28;20116;-74
2022/01/30 11:26:15;;;;;;;5.35;1.20;;;5.60;99.90;;;;;;5034650;28;20090;-77
2022/01/30 11:28:41;;;;;;;1.85;0.55;;;5.50;99.90;;;;;;5052530;28;20028;-75
2022/01/30 11:31:08;;;;;;;0.98;0.77;;;5.50;99.90;;;;;;5052604;28;20499;-75
2022/01/30 11:33:36;;;;;;;1.00;0.73;;;5.70;99.90;;;;;;5033519;28;20060;-74
2022/01/30 11:36:02;;;;;;;5.05;1.38;;;5.70;99.90;;;;;;5043146;28;20021;-75
2022/01/30 11:38:28;;;;;;;1.98;0.73;;;5.80;99.90;;;;;;5042894;28;20088;-75
2022/01/30 11:41:12;;;;;;;0.55;0.55;;;5.80;99.90;;;;;;5034634;28;20056;-75
2022/01/30 11:43:37;;;;;;;0.32;0.32;;;5.90;99.90;;;;;;5049513;28;20127;-75
2022/01/30 11:46:14;;;;;;;0.65;0.65;;;5.80;99.90;;;;;;5053719;28;20115;-75
2022/01/30 11:48:41;;;;;;;0.30;0.30;;;5.90;99.90;;;;;;5034562;28;20392;-75
2022/01/30 11:51:07;;;;;;;2.65;0.55;;;5.90;99.90;;;;;;5058588;28;20020;-75
2022/01/30 11:53:34;;;;;;;0.65;0.65;;;5.90;99.90;;;;;;5053916;28;20066;-75
2022/01/30 11:56:02;;;;;;;0.30;0.30;;;6.10;99.90;;;;;;5037099;28;20071;-75
2022/01/30 11:58:33;;;;;;;0.52;0.52;;;6.50;99.90;;;;;;5053785;28;20021;-75
2022/01/30 12:01:13;;;;;;;0.60;0.60;;;7.10;99.90;;;;;;5071268;28;20044;-75
2022/01/30 12:03:51;;;;;;;0.43;0.40;;;7.90;99.90;;;;;;5055222;28;20028;-75
2022/01/30 12:06:19;;;;;;;0.28;0.28;;;8.00;99.90;;;;;;5051517;28;20021;-75
2022/01/30 12:08:50;;;;;;;0.75;0.30;;;8.90;98.60;;;;;;5052096;28;20060;-75
2022/01/30 12:11:34;;;;;;;0.47;0.47;;;9.80;95.40;;;;;;5033852;28;20021;-75
2022/01/30 12:14:11;;;;;;;0.22;0.22;;;9.80;93.00;;;;;;5033828;28;20025;-75
2022/01/30 12:16:49;;;;;;;2.05;0.43;;;9.60;91.60;;;;;;5033893;28;20025;-75
2022/01/30 12:19:42;;;;;;;2.28;0.77;;;10.20;90.70;;;;;;5033865;28;20427;-75
2022/01/30 12:22:16;;;;;;;1.35;0.73;;;10.00;87.70;;;;;;5051478;28;20040;-75
2022/01/30 12:24:50;;;;;;;0.20;0.20;;;10.30;86.80;;;;;;5051642;28;20506;-75
2022/01/30 12:27:16;;;;;;;6.88;0.75;;;11.40;84.70;;;;;;5051435;28;20037;-75
2022/01/30 12:29:50;;;;;;;2.95;1.25;;;11.40;79.70;;;;;;5033716;28;20388;-75
2022/01/30 12:32:22;;;;;;;0.85;0.85;;;11.30;78.30;;;;;;5033325;28;20484;-75
2022/01/30 12:35:00;;;;;;;0.98;0.30;;;11.40;77.80;;;;;;5051557;28;20088;-75
2022/01/30 12:37:34;;;;;;;0.55;0.55;;;10.60;79.10;;;;;;5033590;28;20080;-75
2022/01/30 12:40:20;;;;;;;1.27;0.80;;;10.30;81.10;;;;;;5017232;28;20021;-75
2022/01/30 12:42:46;;;;;;;0.50;0.38;;;10.10;80.10;;;;;;5051272;28;20027;-75
2022/01/30 12:45:14;;;;;;;0.65;0.43;;;9.90;82.30;;;;;;5033850;28;20021;-75
2022/01/30 12:47:57;;;;;;;0.20;0.20;;;10.40;81.00;;;;;;5033735;28;20029;-74
2022/01/30 12:50:25;;;;;;;;;;;10.70;81.70;;;;;;5055606;28;20024;-75
2022/01/30 12:52:53;;;;;;;0.10;0.10;;;10.90;81.30;;;;;;5020765;28;19924;-75
2022/01/30 12:55:20;;;;;;;2.25;0.30;;;11.40;79.40;;;;;;5054894;28;20025;-75
2022/01/30 12:57:47;;;;;;;5.68;0.80;;;11.10;78.70;;;;;;5036811;28;20031;-75
2022/01/30 13:00:16;;;;;;;0.45;0.20;;;10.10;80.70;;;;;;5055054;28;20028;-74
2022/01/30 13:02:56;;;;;;;2.80;1.02;;;9.80;81.40;;;;;;5054815;28;20017;-75
2022/01/30 13:05:23;;;;;;;2.75;1.00;;;8.70;84.30;;;;;;5037029;28;20543;-75
2022/01/30 13:07:53;;;;;;;0.57;0.30;;;8.40;87.00;;;;;;5054721;28;20025;-75
2022/01/30 13:10:19;;;;;;;0.93;0.80;;;8.20;88.70;;;;;;5036920;28;20369;-75
2022/01/30 13:12:45;;;;;;;0.82;0.47;;;7.90;89.00;;;;;;5036814;28;20021;-74
2022/01/30 13:15:23;;;;;;;0.20;0.20;;;7.40;90.30;;;;;;5037003;28;20400;-74
2022/01/30 13:17:50;;;;;;;5.68;1.38;;;7.10;90.90;;;;;;5036858;28;20507;-74
2022/01/30 13:20:24;;;;;;;0.75;0.75;;;7.20;91.10;;;;;;5054600;28;20013;-75
2022/01/30 13:22:51;;;;;;;0.55;0.55;;;7.10;90.70;;;;;;5054303;28;20048;-75
2022/01/30 13:25:18;;;;;;;0.40;0.40;;;8.10;90.00;;;;;;5036611;28;20075;-75
2022/01/30 13:27:53;;;;;;;0.40;0.40;;;8.70;87.70;;;;;;5054375;28;20020;-74
2022/01/30 13:30:25;;;;;;;4.85;0.73;;;8.90;84.80;;;;;;5054355;28;20017;-75
2022/01/30 13:32:52;;;;;;;;;;;8.30;86.60;;;;;;5036841;28;20515;-75
2022/01/30 13:35:21;;;;;;;1.92;1.13;;;8.50;85.90;;;;;;5036553;28;19912;-74
2022/01/30 13:37:47;;;;;;;0.20;0.20;;;8.70;85.90;;;;;;5054226;28;20199;-75
2022/01/30 13:42:50;;;;;;;0.22;0.22;;;7.90;87.50;;;;;;5040609;28;20054;-76
2022/01/30 13:47:57;;;;;;;0.32;0.32;;;7.80;89.70;;;;;;5059599;28;20025;-77
2022/01/30 13:50:31;;;;;;;0.20;0.20;;;7.70;90.00;;;;;;5038467;28;20124;-76
2022/01/30 13:53:11;;;;;;;12.95;0.85;;;7.80;90.10;;;;;;5036556;28;20025;-73
2022/01/30 13:55:56;;;;;;;0.65;0.50;;;7.70;88.70;;;;;;5036781;28;20517;-78
2022/01/30 13:58:30;;;;;;;0.25;0.25;;;7.90;88.50;;;;;;5054930;28;20021;-79
2022/01/30 14:00:56;;;;;;;0.52;0.52;;;8.10;89.00;;;;;;5042111;28;20021;-76